Monday, August 3, 2015, 11:06 AM EDT

KRIC, Richmond International Airport

Location: Sandston, VA, United States Lat: 37.517
Local Time: 11:06 AM EDT (15:06 GMT) Lon: -77.317
Time Zone: US/Eastern Elev: 167 ft

Show me the last for .
Show Decoded

2015-08-03 09:54 METAR KRIC 031354Z 22006KT 10SM FEW035 SCT085 SCT200 28/19 A2991 RMK AO2 SLP131
                 T02830189 =
2015-08-03 08:54 METAR KRIC 031254Z 19007KT 10SM FEW030 SCT200 26/20 A2991 =
2015-08-03 07:54 METAR KRIC 031154Z 19005KT 10SM FEW200 23/19 A2990 RMK AO2 SLP129 T02280189
                 10228 20189 53005 =
2015-08-03 06:54 METAR KRIC 031054Z 15003KT 10SM FEW200 19/17 A2989 RMK AO2 SLP126 T01940172 =
2015-08-03 05:54 METAR KRIC 030954Z 14003KT 10SM FEW200 19/17 A2988 RMK AO2 SLP122 T01890172 =
2015-08-03 04:54 METAR KRIC 030854Z 00000KT 10SM CLR 21/18 A2989 RMK AO2 SLP124 T02060178 56010 =
2015-08-03 03:54 METAR KRIC 030754Z 18003KT 10SM FEW150 21/18 A2990 RMK AO2 SLP127 T02110178 =
2015-08-03 02:54 METAR KRIC 030654Z 00000KT 10SM FEW150 22/18 A2990 RMK AO2 SLP128 T02170183 =
2015-08-03 01:54 METAR KRIC 030554Z 00000KT 10SM SCT150 21/17 A2992 RMK AO2 SLP133 T02110172
                 10283 20211 58005 =
2015-08-03 00:54 METAR KRIC 030454Z 14003KT 10SM FEW180 22/18 A2993 RMK AO2 SLP137 T02170178
                 403220211 =
2015-08-02 23:54 METAR KRIC 030354Z 00000KT 10SM FEW180 SCT250 22/17 A2993 =
2015-08-02 22:54 METAR KRIC 030254Z 00000KT 10SM FEW040 23/17 A2993 RMK AO2 SLP139 T02330172
                 50005 =
2015-08-02 21:54 METAR KRIC 030154Z 00000KT 10SM SCT040 25/17 A2995 RMK AO2 SLP143 T02500172 =
2015-08-02 20:54 METAR KRIC 030054Z 00000KT 10SM FEW060 SCT250 25/17 A2993 RMK AO2 SLP137
                 T02500172 =
2015-08-02 19:54 METAR KRIC 022354Z 36004KT 10SM FEW060 BKN250 28/14 A2992 RMK AO2 SLP135
                 T02780144 10322 20278 58007 =
2015-08-02 18:54 METAR KRIC 022254Z 05004KT 10SM SCT060 BKN250 29/16 A2992 RMK AO2 SLP136
                 T02940156 =
2015-08-02 17:54 METAR KRIC 022154Z 01005KT 10SM SCT060 BKN250 31/15 A2994 RMK AO2 SLP140
                 T03060150 =
2015-08-02 16:54 METAR KRIC 022054Z 01007KT 10SM SCT060 BKN250 32/16 A2994 RMK AO2 SLP141
                 T03170156 56008 =
2015-08-02 15:54 METAR KRIC 021954Z 07005KT 10SM SCT065 BKN300 31/16 A2994 RMK AO2 SLP142
                 T03110156 =
2015-08-02 14:54 METAR KRIC 021854Z 07006KT 10SM FEW055 BKN300 31/17 A2995 RMK AO2 SLP143
                 T03110167 =
2015-08-02 13:54 METAR KRIC 021754Z 05005KT 10SM FEW055 BKN250 31/17 A2996 RMK AO2 SLP149
                 T03110167 10322 20233 58002 =
2015-08-02 12:54 METAR KRIC 021654Z 01005KT 10SM FEW055 SCT080 BKN250 31/17 A2998 RMK AO2 SLP153
                 T03110167 =
2015-08-02 11:54 METAR KRIC 021554Z 04009KT 10SM SCT080 BKN300 30/16 A2998 RMK AO2 SLP154
                 T03000156 =

Support USWX by starting your Amazon purchase here.